Index of /wp-hr-content/uploads/wpfc-backup/2021/11/

NameLast ModifiedSize
UpParent Directory
[IMG]DOA-HRD-Functional-Chart-FY-2022-Part-A-1080x1402.jpg2021-11-15 06:20 214k
[IMG]DOA-HRD-Functional-Chart-FY-2022-Part-A-1080x675.jpg2021-11-15 06:20 149k
[IMG]DOA-HRD-Functional-Chart-FY-2022-Part-A-1183x1536.jpg2021-11-15 06:20 247k
[IMG]DOA-HRD-Functional-Chart-FY-2022-Part-A-1280x1662.jpg2021-11-15 06:20 276k
[IMG]DOA-HRD-Functional-Chart-FY-2022-Part-A-150x150.jpg2021-11-15 06:20 7k
[IMG]DOA-HRD-Functional-Chart-FY-2022-Part-A-1578x2048.jpg2021-11-15 06:20 369k
[IMG]DOA-HRD-Functional-Chart-FY-2022-Part-A-231x300.jpg2021-11-15 06:20 14k
[IMG]DOA-HRD-Functional-Chart-FY-2022-Part-A-2880x1800.jpg2021-11-15 06:20 611k
[IMG]DOA-HRD-Functional-Chart-FY-2022-Part-A-400x250.jpg2021-11-15 06:20 26k
[IMG]DOA-HRD-Functional-Chart-FY-2022-Part-A-400x284.jpg2021-11-15 06:20 31k
[IMG]DOA-HRD-Functional-Chart-FY-2022-Part-A-400x516.jpg2021-11-15 06:20 38k
[IMG]DOA-HRD-Functional-Chart-FY-2022-Part-A-480x623.jpg2021-11-15 06:20 54k
[IMG]DOA-HRD-Functional-Chart-FY-2022-Part-A-510x382.jpg2021-11-15 06:20 50k
[IMG]DOA-HRD-Functional-Chart-FY-2022-Part-A-768x997.jpg2021-11-15 06:20 121k
[IMG]DOA-HRD-Functional-Chart-FY-2022-Part-A-789x1024.jpg2021-11-15 06:20 127k
[IMG]DOA-HRD-Functional-Chart-FY-2022-Part-A-980x1272.jpg2021-11-15 06:20 182k
[IMG]DOA-HRD-Functional-Chart-FY-2022-Part-A-scaled.jpg2021-11-15 06:20 512k
[IMG]DOA-HRD-Functional-Chart-FY-2022-Part-B-1080x1397.jpg2021-11-15 06:20 195k
[IMG]DOA-HRD-Functional-Chart-FY-2022-Part-B-1080x675.jpg2021-11-15 06:20 136k
[IMG]DOA-HRD-Functional-Chart-FY-2022-Part-B-1187x1536.jpg2021-11-15 06:20 226k
[IMG]DOA-HRD-Functional-Chart-FY-2022-Part-B-1280x1657.jpg2021-11-15 06:20 255k
[IMG]DOA-HRD-Functional-Chart-FY-2022-Part-B-150x150.jpg2021-11-15 06:20 5k
[IMG]DOA-HRD-Functional-Chart-FY-2022-Part-B-1583x2048.jpg2021-11-15 06:20 355k
[IMG]DOA-HRD-Functional-Chart-FY-2022-Part-B-232x300.jpg2021-11-15 06:20 12k
[IMG]DOA-HRD-Functional-Chart-FY-2022-Part-B-2880x1800.jpg2021-11-15 06:20 603k
[IMG]DOA-HRD-Functional-Chart-FY-2022-Part-B-400x250.jpg2021-11-15 06:20 23k
[IMG]DOA-HRD-Functional-Chart-FY-2022-Part-B-400x284.jpg2021-11-15 06:20 24k
[IMG]DOA-HRD-Functional-Chart-FY-2022-Part-B-400x516.jpg2021-11-15 06:20 33k
[IMG]DOA-HRD-Functional-Chart-FY-2022-Part-B-480x621.jpg2021-11-15 06:20 46k
[IMG]DOA-HRD-Functional-Chart-FY-2022-Part-B-510x382.jpg2021-11-15 06:20 40k
[IMG]DOA-HRD-Functional-Chart-FY-2022-Part-B-768x994.jpg2021-11-15 06:20 106k
[IMG]DOA-HRD-Functional-Chart-FY-2022-Part-B-791x1024.jpg2021-11-15 06:20 114k
[IMG]DOA-HRD-Functional-Chart-FY-2022-Part-B-980x1268.jpg2021-11-15 06:20 164k
[IMG]DOA-HRD-Functional-Chart-FY-2022-Part-B-scaled.jpg2021-11-15 06:20 489k
[IMG]DOA-HRD-Functional-Chart-FY-2022-Part-C-1080x1402.jpg2021-11-15 06:19 206k
[IMG]DOA-HRD-Functional-Chart-FY-2022-Part-C-1080x675.jpg2021-11-15 06:19 121k
[IMG]DOA-HRD-Functional-Chart-FY-2022-Part-C-1183x1536.jpg2021-11-15 06:19 236k
[IMG]DOA-HRD-Functional-Chart-FY-2022-Part-C-1280x1662.jpg2021-11-15 06:19 262k
[IMG]DOA-HRD-Functional-Chart-FY-2022-Part-C-150x150.jpg2021-11-15 06:19 6k
[IMG]DOA-HRD-Functional-Chart-FY-2022-Part-C-1577x2048.jpg2021-11-15 06:19 361k
[IMG]DOA-HRD-Functional-Chart-FY-2022-Part-C-231x300.jpg2021-11-15 06:19 13k
[IMG]DOA-HRD-Functional-Chart-FY-2022-Part-C-2880x1800.jpg2021-11-15 06:19 500k
[IMG]DOA-HRD-Functional-Chart-FY-2022-Part-C-400x250.jpg2021-11-15 06:19 23k
[IMG]DOA-HRD-Functional-Chart-FY-2022-Part-C-400x284.jpg2021-11-15 06:19 26k
[IMG]DOA-HRD-Functional-Chart-FY-2022-Part-C-400x516.jpg2021-11-15 06:19 36k
[IMG]DOA-HRD-Functional-Chart-FY-2022-Part-C-480x623.jpg2021-11-15 06:19 51k
[IMG]DOA-HRD-Functional-Chart-FY-2022-Part-C-510x382.jpg2021-11-15 06:19 41k
[IMG]DOA-HRD-Functional-Chart-FY-2022-Part-C-768x997.jpg2021-11-15 06:19 116k
[IMG]DOA-HRD-Functional-Chart-FY-2022-Part-C-789x1024.jpg2021-11-15 06:19 125k
[IMG]DOA-HRD-Functional-Chart-FY-2022-Part-C-980x1272.jpg2021-11-15 06:19 174k
[IMG]DOA-HRD-Functional-Chart-FY-2022-Part-C-scaled.jpg2021-11-15 06:19 490k
[IMG]DOA-HRD-Organizational-Chart-FY-2022-1080x1397.jpg2021-11-15 06:21 103k
[IMG]DOA-HRD-Organizational-Chart-FY-2022-1080x675.jpg2021-11-15 06:21 58k
[IMG]DOA-HRD-Organizational-Chart-FY-2022-1187x1536.jpg2021-11-15 06:21 116k
[IMG]DOA-HRD-Organizational-Chart-FY-2022-1280x1657.jpg2021-11-15 06:21 131k
[IMG]DOA-HRD-Organizational-Chart-FY-2022-150x150.jpg2021-11-15 06:21 5k
[IMG]DOA-HRD-Organizational-Chart-FY-2022-1583x2048.jpg2021-11-15 06:21 185k
[IMG]DOA-HRD-Organizational-Chart-FY-2022-232x300.jpg2021-11-15 06:21 10k
[IMG]DOA-HRD-Organizational-Chart-FY-2022-2803x1800.jpg2021-11-15 06:21 258k
[IMG]DOA-HRD-Organizational-Chart-FY-2022-400x250.jpg2021-11-15 06:21 14k
[IMG]DOA-HRD-Organizational-Chart-FY-2022-400x284.jpg2021-11-15 06:21 17k
[IMG]DOA-HRD-Organizational-Chart-FY-2022-400x516.jpg2021-11-15 06:21 23k
[IMG]DOA-HRD-Organizational-Chart-FY-2022-480x621.jpg2021-11-15 06:21 31k
[IMG]DOA-HRD-Organizational-Chart-FY-2022-510x382.jpg2021-11-15 06:21 24k
[IMG]DOA-HRD-Organizational-Chart-FY-2022-768x994.jpg2021-11-15 06:21 63k
[IMG]DOA-HRD-Organizational-Chart-FY-2022-791x1024.jpg2021-11-15 06:21 66k
[IMG]DOA-HRD-Organizational-Chart-FY-2022-980x1268.jpg2021-11-15 06:21 93k
[IMG]DOA-HRD-Organizational-Chart-FY-2022-scaled.jpg2021-11-15 06:21 261k
Proudly Served by LiteSpeed Web Server at hr.doa.guam.gov Port 443